Time;durP1;ratioP1;P1;durP2;ratioP2;P2;SDS_P1;SDS_P2;PMS_P1;PMS_P2;Temp;Humidity;BMP_temperature;BMP_pressure;BME280_temperature;BME280_humidity;BME280_pressure;Samples;Min_cycle;Max_cycle;Signal;HPM_P1;HPM_P2
2022/03/06 00:01:07;;;;;;;20.73;13.68;;;;;;;1.37;81.60;95095.63;5087545;28;20031;-75
2022/03/06 00:03:32;;;;;;;21.67;14.98;;;;;;;1.32;81.64;95098.66;5087413;28;20035;-76
2022/03/06 00:05:58;;;;;;;21.45;14.65;;;;;;;1.31;81.15;95099.59;5086912;28;20027;-76
2022/03/06 00:08:23;;;;;;;19.50;13.75;;;;;;;1.21;81.77;95089.81;5087933;28;20025;-75
2022/03/06 00:10:49;;;;;;;18.17;12.85;;;;;;;1.13;81.88;95091.41;5086172;28;20445;-76
2022/03/06 00:13:14;;;;;;;21.15;14.63;;;;;;;1.25;81.49;95094.81;5087780;28;20399;-76
2022/03/06 00:15:43;;;;;;;19.10;12.85;;;;;;;1.23;81.02;95095.81;5053183;28;20046;-76
2022/03/06 00:18:09;;;;;;;19.88;13.82;;;;;;;1.22;81.61;95091.50;5087308;28;20111;-75
2022/03/06 00:20:34;;;;;;;17.20;12.50;;;;;;;1.19;81.66;95088.25;5087074;28;20526;-75
2022/03/06 00:23:00;;;;;;;16.80;12.80;;;;;;;1.20;81.14;95085.50;5086918;28;20448;-76
2022/03/06 00:25:25;;;;;;;15.63;10.82;;;;;;;1.13;80.92;95083.50;5087643;28;20032;-75
2022/03/06 00:27:50;;;;;;;15.43;11.02;;;;;;;1.16;81.73;95097.25;5086169;28;20248;-75
2022/03/06 00:30:16;;;;;;;17.48;11.50;;;;;;;1.09;81.41;95104.88;5087667;28;20439;-76
2022/03/06 00:32:41;;;;;;;19.13;11.63;;;;;;;1.09;81.73;95089.03;5085979;28;20401;-75
2022/03/06 00:35:07;;;;;;;15.68;10.60;;;;;;;1.02;82.27;95087.00;5086035;28;20036;-76
2022/03/06 00:37:32;;;;;;;14.23;9.52;;;;;;;0.95;82.29;95084.03;5085488;28;20128;-76
2022/03/06 00:39:58;;;;;;;16.85;10.88;;;;;;;0.96;81.79;95078.63;5085760;28;20031;-75
2022/03/06 00:42:23;;;;;;;14.27;9.45;;;;;;;0.97;82.04;95079.44;5086809;28;20028;-76
2022/03/06 00:44:49;;;;;;;13.25;9.82;;;;;;;0.92;82.29;95079.03;5086401;28;20027;-76
2022/03/06 00:47:14;;;;;;;13.32;9.23;;;;;;;0.90;81.78;95070.38;5088570;28;20349;-76
2022/03/06 00:49:41;;;;;;;13.65;10.00;;;;;;;0.84;82.74;95074.34;5087350;28;20418;-76
2022/03/06 00:52:06;;;;;;;14.18;9.45;;;;;;;0.96;82.34;95073.34;5088544;28;20092;-76
2022/03/06 00:54:32;;;;;;;10.23;7.35;;;;;;;0.81;82.36;95070.16;5085477;28;20403;-76
2022/03/06 00:56:57;;;;;;;12.70;8.98;;;;;;;0.94;81.71;95064.72;5068445;28;20403;-76
2022/03/06 00:59:23;;;;;;;12.50;8.68;;;;;;;0.89;81.89;95071.34;5086288;28;20494;-75
2022/03/06 01:01:48;;;;;;;12.60;8.73;;;;;;;0.93;82.74;95067.47;5085897;28;20470;-75
2022/03/06 01:04:13;;;;;;;11.60;8.02;;;;;;;0.74;82.82;95059.25;5088199;28;20024;-76
2022/03/06 01:06:39;;;;;;;14.07;9.65;;;;;;;0.95;82.80;95052.34;5084879;28;20028;-76
2022/03/06 01:09:05;;;;;;;12.32;8.60;;;;;;;0.91;82.48;95054.41;5088036;28;20040;-75
2022/03/06 01:11:30;;;;;;;13.20;8.52;;;;;;;0.83;81.64;95051.56;5068682;28;20077;-76
2022/03/06 01:13:56;;;;;;;12.18;9.05;;;;;;;0.81;81.78;95048.19;5087506;28;20020;-75
2022/03/06 01:16:21;;;;;;;12.65;9.38;;;;;;;0.77;82.72;95052.91;5087160;28;20118;-75
2022/03/06 01:18:47;;;;;;;12.77;8.82;;;;;;;0.77;82.68;95049.41;5087412;28;20547;-75
2022/03/06 01:21:12;;;;;;;13.32;9.27;;;;;;;0.80;82.03;95057.94;5069159;28;20084;-76
2022/03/06 01:23:37;;;;;;;12.60;9.25;;;;;;;0.76;82.13;95050.41;5086759;28;20537;-75
2022/03/06 01:26:03;;;;;;;13.30;9.25;;;;;;;0.70;82.66;95055.19;5088024;28;20073;-75
2022/03/06 01:28:29;;;;;;;15.07;9.65;;;;;;;0.82;83.00;95055.16;5085458;28;20078;-75
2022/03/06 01:30:54;;;;;;;14.80;9.85;;;;;;;0.75;82.93;95052.19;5086221;28;20031;-75
2022/03/06 01:33:19;;;;;;;16.42;10.32;;;;;;;0.77;83.42;95047.63;5085312;28;20020;-75
2022/03/06 01:35:45;;;;;;;16.17;10.30;;;;;;;0.79;83.29;95044.84;5087222;28;20020;-75
2022/03/06 01:38:10;;;;;;;14.32;10.25;;;;;;;0.79;82.84;95037.75;5086647;28;20020;-75
2022/03/06 01:40:36;;;;;;;15.98;9.13;;;;;;;0.74;83.67;95035.50;5085577;28;20020;-75
2022/03/06 01:43:02;;;;;;;13.45;9.70;;;;;;;0.80;82.91;95036.81;5068805;28;20043;-76
2022/03/06 01:45:27;;;;;;;16.33;10.38;;;;;;;0.80;82.68;95030.69;5084834;28;20031;-76
2022/03/06 01:47:54;;;;;;;13.85;9.60;;;;;;;0.90;82.86;95038.69;5087703;28;20031;-75
2022/03/06 01:50:23;;;;;;;16.10;10.05;;;;;;;0.88;82.78;95025.59;5084638;28;20024;-75
2022/03/06 01:52:50;;;;;;;13.75;9.70;;;;;;;0.96;82.48;95024.97;5085815;28;20036;-76
2022/03/06 01:55:17;;;;;;;13.90;10.10;;;;;;;0.91;82.11;95022.72;5084898;28;20383;-76
2022/03/06 01:57:42;;;;;;;14.07;9.20;;;;;;;0.85;82.46;95010.84;5086687;28;20043;-76
2022/03/06 02:00:13;;;;;;;12.98;9.68;;;;;;;0.89;82.92;95015.91;5051752;28;20016;-76
2022/03/06 02:02:39;;;;;;;14.98;10.18;;;;;;;1.06;82.12;95015.31;5084885;28;20036;-76
2022/03/06 02:05:05;;;;;;;14.50;9.63;;;;;;;1.01;81.85;95017.50;5085566;28;20456;-76
2022/03/06 02:07:31;;;;;;;14.88;9.70;;;;;;;0.97;81.61;95010.78;5084545;28;20042;-75
2022/03/06 02:09:57;;;;;;;15.15;9.80;;;;;;;1.05;82.25;95013.63;5086993;28;20374;-76
2022/03/06 02:12:23;;;;;;;14.73;9.88;;;;;;;1.04;81.29;95011.97;5067458;28;20414;-77
2022/03/06 02:14:50;;;;;;;13.50;9.70;;;;;;;1.07;82.32;95011.72;5085083;28;20020;-75
2022/03/06 02:17:15;;;;;;;13.68;9.82;;;;;;;1.17;80.87;95005.66;5068062;28;20028;-76
2022/03/06 02:20:10;;;;;;;13.57;9.77;;;;;;;1.11;80.58;95018.41;5086189;28;20032;-76
2022/03/06 02:22:37;;;;;;;14.90;10.23;;;;;;;1.15;80.70;95010.22;5070589;28;20046;-76
2022/03/06 02:25:18;;;;;;;17.95;10.15;;;;;;;1.06;80.89;95020.59;5084153;28;20036;-75
2022/03/06 02:27:44;;;;;;;16.65;10.68;;;;;;;1.05;81.49;95018.91;5052466;28;20108;-76
2022/03/06 02:30:11;;;;;;;16.65;11.13;;;;;;;1.17;80.09;95010.94;5084519;28;20020;-76
2022/03/06 02:32:37;;;;;;;16.48;10.35;;;;;;;1.16;80.35;95007.44;5068137;28;20031;-76
2022/03/06 02:35:03;;;;;;;15.98;10.63;;;;;;;1.10;80.14;95006.16;5085334;28;20051;-76
2022/03/06 02:37:29;;;;;;;15.65;10.93;;;;;;;1.13;80.29;95015.63;5084045;28;20056;-74
2022/03/06 02:39:54;;;;;;;14.82;10.13;;;;;;;1.14;80.18;95016.47;5085452;28;20415;-78
2022/03/06 02:42:24;;;;;;;16.58;10.82;;;;;;;1.17;80.40;95018.84;5084071;28;20020;-74
2022/03/06 02:44:49;;;;;;;17.02;11.00;;;;;;;1.06;80.38;95004.75;5085001;28;20496;-75
2022/03/06 02:47:15;;;;;;;15.68;10.85;;;;;;;1.13;80.83;95014.81;5085612;28;20035;-75
2022/03/06 02:49:40;;;;;;;15.35;10.95;;;;;;;1.09;80.36;95016.84;5084652;28;20020;-75
2022/03/06 02:52:08;;;;;;;15.00;10.20;;;;;;;1.14;80.15;95014.69;5086243;28;20437;-75
2022/03/06 02:54:33;;;;;;;17.08;10.50;;;;;;;1.15;80.37;95018.97;5083754;28;20411;-74
2022/03/06 02:56:59;;;;;;;16.52;10.32;;;;;;;1.28;80.54;95023.22;5085282;28;20578;-74
2022/03/06 02:59:24;;;;;;;15.85;10.43;;;;;;;1.25;80.02;95016.41;5083810;28;20031;-73
2022/03/06 03:01:49;;;;;;;16.88;10.68;;;;;;;1.22;79.36;95022.81;5068111;28;20456;-75
2022/03/06 03:04:16;;;;;;;13.70;10.10;;;;;;;1.22;79.83;95021.94;5083850;28;20046;-74
2022/03/06 03:06:41;;;;;;;14.70;10.05;;;;;;;1.23;79.96;95020.97;5084760;28;20028;-74
2022/03/06 03:09:07;;;;;;;14.15;9.43;;;;;;;1.25;80.06;95028.78;5085677;28;20024;-74
2022/03/06 03:11:33;;;;;;;14.60;9.80;;;;;;;1.28;80.29;95015.31;5067199;28;20047;-74
2022/03/06 03:13:59;;;;;;;15.40;10.40;;;;;;;1.14;79.94;95027.03;5068410;28;20028;-74
2022/03/06 03:16:25;;;;;;;14.13;9.57;;;;;;;1.14;79.82;95024.41;5085311;28;20074;-74
2022/03/06 03:18:50;;;;;;;13.25;8.98;;;;;;;1.14;81.13;95029.69;5068434;28;20024;-74
2022/03/06 03:21:15;;;;;;;13.18;8.85;;;;;;;1.06;80.87;95036.47;5085361;28;20016;-75
2022/03/06 03:23:41;;;;;;;15.20;9.75;;;;;;;1.04;81.29;95038.38;5085589;28;20298;-74
2022/03/06 03:26:06;;;;;;;13.30;8.95;;;;;;;1.02;80.39;95045.59;5085529;28;20395;-75
2022/03/06 03:28:32;;;;;;;13.25;9.68;;;;;;;0.94;80.62;95032.16;5085507;28;20024;-74
2022/03/06 03:30:57;;;;;;;12.52;8.98;;;;;;;0.79;81.58;95027.19;5089378;28;20411;-76
2022/03/06 03:33:24;;;;;;;15.95;9.88;;;;;;;0.82;81.39;95028.75;5087594;28;20024;-75
2022/03/06 03:35:49;;;;;;;14.98;9.38;;;;;;;0.68;82.23;95035.16;5088793;28;20111;-75
2022/03/06 03:38:14;;;;;;;19.10;10.95;;;;;;;0.77;82.16;95030.94;5087413;28;20028;-75
2022/03/06 03:40:40;;;;;;;15.38;9.07;;;;;;;0.83;81.71;95033.91;5089611;28;20024;-75
2022/03/06 03:43:06;;;;;;;13.95;9.05;;;;;;;0.64;82.91;95031.09;5088817;28;20113;-75
2022/03/06 03:45:31;;;;;;;15.40;9.57;;;;;;;0.66;82.43;95031.81;5089089;28;20112;-75
2022/03/06 03:47:56;;;;;;;13.68;8.75;;;;;;;0.68;82.21;95041.28;5087667;28;20519;-76
2022/03/06 03:50:22;;;;;;;15.02;9.32;;;;;;;0.60;82.61;95035.78;5089041;28;20020;-74
2022/03/06 03:52:47;;;;;;;12.27;8.73;;;;;;;0.50;83.47;95033.06;5088111;28;20062;-75
2022/03/06 03:55:13;;;;;;;14.07;8.38;;;;;;;0.59;82.75;95034.97;5087056;28;20477;-75
2022/03/06 03:57:38;;;;;;;12.95;8.95;;;;;;;0.48;83.20;95037.63;5071234;28;20032;-74
2022/03/06 04:00:05;;;;;;;12.73;7.78;;;;;;;0.44;83.49;95030.91;5070113;28;20024;-74
2022/03/06 04:02:32;;;;;;;12.68;8.18;;;;;;;0.52;83.17;95038.22;5087684;28;20486;-74
2022/03/06 04:04:57;;;;;;;11.25;7.38;;;;;;;0.43;83.83;95031.88;5087081;28;20032;-74
2022/03/06 04:07:23;;;;;;;14.40;9.15;;;;;;;0.38;84.51;95032.25;5088911;28;20085;-73
2022/03/06 04:09:48;;;;;;;12.95;8.15;;;;;;;0.51;83.85;95040.03;5088564;28;20024;-74
2022/03/06 04:12:14;;;;;;;12.57;8.57;;;;;;;0.40;84.19;95042.69;5088129;28;20044;-74
2022/03/06 04:14:39;;;;;;;13.07;8.02;;;;;;;0.32;84.23;95035.41;5087628;28;20024;-74
2022/03/06 04:17:04;;;;;;;12.27;8.52;;;;;;;0.43;83.69;95037.16;5088213;28;20031;-73
2022/03/06 04:19:30;;;;;;;12.50;8.55;;;;;;;0.46;83.77;95045.69;5089100;28;20153;-73
2022/03/06 04:21:55;;;;;;;15.80;9.63;;;;;;;0.38;84.15;95047.25;5087682;28;20035;-75
2022/03/06 04:24:21;;;;;;;13.05;8.18;;;;;;;0.41;84.15;95047.84;5088546;28;20031;-74
2022/03/06 04:26:46;;;;;;;11.45;8.20;;;;;;;0.51;83.76;95055.00;5087705;28;20024;-76
2022/03/06 04:29:11;;;;;;;10.73;7.53;;;;;;;0.37;84.32;95046.44;5088247;28;20035;-74
2022/03/06 04:31:37;;;;;;;11.90;7.40;;;;;;;0.44;83.74;95047.59;5088946;28;20039;-76
2022/03/06 04:34:02;;;;;;;9.77;6.95;;;;;;;0.45;83.53;95041.34;5087483;28;20093;-76
2022/03/06 04:36:28;;;;;;;10.90;7.70;;;;;;;0.46;83.31;95050.09;5088964;28;20475;-75
2022/03/06 04:38:53;;;;;;;11.73;7.68;;;;;;;0.41;84.02;95049.63;5087346;28;20089;-76
2022/03/06 04:41:19;;;;;;;9.40;6.65;;;;;;;0.35;83.85;95043.06;5086129;28;20400;-75
2022/03/06 04:43:44;;;;;;;12.73;7.47;;;;;;;0.36;84.40;95037.66;5069067;28;20028;-75
2022/03/06 04:46:10;;;;;;;10.80;7.10;;;;;;;0.31;83.59;95050.38;5087994;28;20474;-77
2022/03/06 04:48:35;;;;;;;11.45;7.78;;;;;;;0.36;84.46;95039.44;5086631;28;20028;-75
2022/03/06 04:51:00;;;;;;;12.95;7.63;;;;;;;0.35;83.63;95045.72;5086055;28;20460;-75
2022/03/06 04:53:26;;;;;;;8.05;5.45;;;;;;;0.22;83.59;95056.41;5088385;28;20494;-75
2022/03/06 04:55:51;;;;;;;10.45;6.65;;;;;;;0.28;84.77;95042.72;5086957;28;20039;-75
2022/03/06 04:58:17;;;;;;;10.55;7.00;;;;;;;0.26;84.73;95049.91;5086902;28;20468;-75
2022/03/06 05:00:42;;;;;;;9.85;6.82;;;;;;;0.30;84.87;95046.06;5087139;28;20054;-73
2022/03/06 05:03:08;;;;;;;11.23;6.72;;;;;;;0.19;84.56;95027.63;5088015;28;20066;-74
2022/03/06 05:05:33;;;;;;;10.50;6.80;;;;;;;0.21;84.30;95042.38;5085992;28;20043;-74
2022/03/06 05:08:00;;;;;;;10.13;6.90;;;;;;;0.28;84.69;95050.63;5087261;28;20545;-75
2022/03/06 05:10:25;;;;;;;12.23;8.00;;;;;;;0.29;84.49;95039.09;5086288;28;20036;-75
2022/03/06 05:12:51;;;;;;;14.40;8.32;;;;;;;0.25;84.75;95042.97;5085250;28;20040;-75
2022/03/06 05:15:16;;;;;;;12.63;7.38;;;;;;;0.20;85.17;95045.97;5086731;28;20505;-74
2022/03/06 05:17:42;;;;;;;11.88;7.30;;;;;;;0.13;84.52;95043.94;5068713;28;20043;-74
2022/03/06 05:20:08;;;;;;;11.43;8.00;;;;;;;0.19;85.04;95049.59;5087654;28;20516;-75
2022/03/06 05:22:34;;;;;;;9.57;6.82;;;;;;;0.11;85.10;95041.44;5085613;28;20460;-76
2022/03/06 05:24:59;;;;;;;10.45;6.88;;;;;;;0.14;85.46;95037.72;5085949;28;20048;-74
2022/03/06 05:27:26;;;;;;;11.00;7.15;;;;;;;0.08;85.42;95045.13;5086044;28;20028;-74
2022/03/06 05:29:51;;;;;;;13.07;7.28;;;;;;;0.10;85.92;95053.78;5086942;28;20032;-74
2022/03/06 05:32:16;;;;;;;12.57;7.28;;;;;;;0.04;85.49;95056.91;5087277;28;20046;-75
2022/03/06 05:34:42;;;;;;;9.98;7.10;;;;;;;0.10;85.21;95058.19;5068231;28;20031;-75
2022/03/06 05:37:07;;;;;;;11.15;7.25;;;;;;;0.03;86.01;95059.66;5086095;28;20023;-74
2022/03/06 05:39:33;;;;;;;10.02;6.63;;;;;;;0.01;85.54;95062.41;5063407;28;20027;-75
2022/03/06 05:41:58;;;;;;;13.30;7.43;;;;;;;0.08;85.33;95060.97;5085223;28;20024;-76
2022/03/06 05:44:24;;;;;;;12.57;8.23;;;;;;;0.13;85.30;95071.13;5083722;28;20020;-75
2022/03/06 05:46:50;;;;;;;12.52;7.80;;;;;;;0.08;85.46;95066.22;5082514;28;20028;-75
2022/03/06 05:49:16;;;;;;;11.00;8.55;;;;;;;0.08;85.09;95058.31;5084466;28;20093;-76
2022/03/06 05:51:42;;;;;;;10.90;8.00;;;;;;;0.14;85.63;95062.28;5063637;28;20020;-75
2022/03/06 05:54:07;;;;;;;9.90;7.50;;;;;;;0.13;85.05;95062.41;5082943;28;20032;-74
2022/03/06 05:56:33;;;;;;;10.20;7.63;;;;;;;0.10;85.61;95061.69;5080118;28;20114;-73
2022/03/06 05:58:58;;;;;;;9.98;7.47;;;;;;;0.06;85.59;95056.78;5082670;28;20059;-74
2022/03/06 06:01:25;;;;;;;10.90;8.32;;;;;;;0.09;85.89;95064.44;5083439;28;20036;-74
2022/03/06 06:03:50;;;;;;;10.93;7.30;;;;;;;0.09;86.07;95070.56;5082734;28;20192;-73
2022/03/06 06:06:16;;;;;;;12.32;7.88;;;;;;;0.10;85.56;95072.25;5082549;28;20024;-74
2022/03/06 06:08:41;;;;;;;11.85;7.40;;;;;;;0.17;85.56;95080.50;5079977;28;20027;-74
2022/03/06 06:11:07;;;;;;;11.85;7.32;;;;;;;0.15;85.07;95078.94;5085082;28;20044;-75
2022/03/06 06:13:33;;;;;;;10.10;7.18;;;;;;;0.16;84.89;95072.72;5078624;28;20295;-74
2022/03/06 06:15:58;;;;;;;10.38;6.72;;;;;;;0.17;85.07;95085.78;5064128;28;20024;-75
2022/03/06 06:18:26;;;;;;;10.65;6.88;;;;;;;0.23;84.79;95080.03;5081553;28;20080;-75
2022/03/06 06:20:53;;;;;;;9.98;6.35;;;;;;;0.33;85.03;95088.03;5068125;28;20052;-75
2022/03/06 06:23:18;;;;;;;9.73;6.32;;;;;;;0.22;84.81;95080.13;5082976;28;20025;-74
2022/03/06 06:25:44;;;;;;;8.45;5.35;;;;;;;0.18;84.30;95082.19;5062989;28;20498;-74
2022/03/06 06:28:09;;;;;;;10.57;6.72;;;;;;;0.14;85.09;95075.47;5084221;28;20027;-75
2022/03/06 06:30:35;;;;;;;8.10;5.85;;;;;;;0.07;84.90;95071.63;5083334;28;20424;-75
2022/03/06 06:33:00;;;;;;;8.68;5.82;;;;;;;0.12;84.88;95080.03;5049429;28;20028;-74
2022/03/06 06:35:26;;;;;;;9.95;7.20;;;;;;;0.23;84.71;95080.03;5079961;28;20028;-77
2022/03/06 06:37:51;;;;;;;10.60;6.40;;;;;;;0.22;84.09;95081.00;5083713;28;20029;-77
2022/03/06 06:40:17;;;;;;;6.95;5.07;;;;;;;0.34;84.24;95080.94;5084359;28;20031;-76
2022/03/06 06:42:42;;;;;;;8.18;4.88;;;;;;;0.25;83.69;95074.63;5079855;28;20024;-77
2022/03/06 06:45:08;;;;;;;7.18;4.97;;;;;;;0.28;83.03;95071.72;5080704;28;20028;-78
2022/03/06 06:47:33;;;;;;;8.02;5.20;;;;;;;0.30;83.03;95077.72;5080548;28;20031;-75
2022/03/06 06:49:58;;;;;;;7.45;5.32;;;;;;;0.35;83.28;95091.41;5079993;28;20469;-74
2022/03/06 06:52:24;;;;;;;7.80;5.55;;;;;;;0.31;83.17;95084.69;5082075;28;20478;-75
2022/03/06 06:54:49;;;;;;;7.45;4.78;;;;;;;0.14;83.43;95093.94;5063012;28;20023;-75
2022/03/06 06:57:15;;;;;;;6.47;4.68;;;;;;;0.18;83.82;95097.19;5066070;28;20262;-74
2022/03/06 06:59:40;;;;;;;5.50;3.75;;;;;;;0.04;83.92;95093.81;5083832;28;20497;-74
2022/03/06 07:02:06;;;;;;;8.65;5.70;;;;;;;0.16;84.31;95107.00;5082727;28;20391;-75
2022/03/06 07:04:31;;;;;;;8.73;5.90;;;;;;;0.21;84.65;95089.03;5062442;28;20032;-74
2022/03/06 07:06:56;;;;;;;8.93;6.18;;;;;;;0.14;84.19;95088.66;5078149;28;20059;-75
2022/03/06 07:09:22;;;;;;;9.43;6.18;;;;;;;0.08;84.47;95091.78;5085378;28;20032;-74
2022/03/06 07:11:47;;;;;;;9.35;6.57;;;;;;;0.12;84.28;95098.50;5080231;28;20044;-74
2022/03/06 07:14:13;;;;;;;8.95;5.78;;;;;;;0.14;84.14;95095.72;5079627;28;20078;-75
2022/03/06 07:16:38;;;;;;;8.23;6.32;;;;;;;0.10;84.25;95095.13;5085350;28;20016;-75
2022/03/06 07:19:04;;;;;;;8.60;6.05;;;;;;;0.09;84.45;95107.50;5066941;28;20020;-74
2022/03/06 07:21:29;;;;;;;7.35;5.50;;;;;;;0.21;84.82;95104.84;5084170;28;20047;-75
2022/03/06 07:23:54;;;;;;;10.38;6.85;;;;;;;0.21;84.42;95096.94;5062616;28;20027;-74
2022/03/06 07:26:20;;;;;;;14.15;8.05;;;;;;;0.26;84.07;95094.75;5084430;28;20031;-74
2022/03/06 07:28:45;;;;;;;10.65;6.75;;;;;;;0.24;83.81;95088.78;5084730;28;20028;-78
2022/03/06 07:31:11;;;;;;;9.55;6.38;;;;;;;0.22;84.79;95083.63;5084640;28;20039;-74
2022/03/06 07:33:36;;;;;;;9.13;6.90;;;;;;;0.24;84.26;95089.59;5067384;28;20020;-75
2022/03/06 07:36:02;;;;;;;8.48;6.07;;;;;;;0.19;84.08;95102.34;5082682;28;20020;-75
2022/03/06 07:38:27;;;;;;;10.00;7.22;;;;;;;0.35;84.70;95099.31;5082913;28;20024;-75
2022/03/06 07:40:53;;;;;;;9.82;7.03;;;;;;;0.43;84.50;95103.13;5082878;28;20409;-75
2022/03/06 07:43:18;;;;;;;10.65;6.90;;;;;;;0.40;83.73;95098.94;5077555;28;20501;-75
2022/03/06 07:45:44;;;;;;;9.85;6.18;;;;;;;0.32;83.84;95096.91;5083488;28;20024;-75
2022/03/06 07:48:09;;;;;;;10.35;6.78;;;;;;;0.25;83.91;95114.19;5068589;28;20024;-76
2022/03/06 07:50:35;;;;;;;9.05;5.97;;;;;;;0.26;84.18;95110.56;5068189;28;20032;-75
2022/03/06 07:53:00;;;;;;;10.88;7.07;;;;;;;0.24;84.60;95115.16;5085243;28;20560;-74
2022/03/06 07:55:26;;;;;;;9.10;6.18;;;;;;;0.30;84.02;95119.94;5081189;28;20618;-78
2022/03/06 07:57:51;;;;;;;10.70;7.05;;;;;;;0.42;83.76;95117.31;5087513;28;20486;-73
2022/03/06 08:00:16;;;;;;;9.85;6.43;;;;;;;0.43;83.88;95114.53;5067344;28;20024;-73
2022/03/06 08:02:42;;;;;;;11.00;7.10;;;;;;;0.49;83.28;95113.19;5067030;28;20028;-73
2022/03/06 08:05:08;;;;;;;11.57;7.10;;;;;;;0.39;83.52;95115.72;5084301;28;20031;-74
2022/03/06 08:07:34;;;;;;;10.80;7.10;;;;;;;0.43;83.39;95121.59;5065562;28;20028;-75
2022/03/06 08:09:59;;;;;;;11.00;6.97;;;;;;;0.39;83.23;95118.38;5085027;28;20557;-74
2022/03/06 08:12:26;;;;;;;10.15;6.80;;;;;;;0.55;83.81;95123.25;5086772;28;20048;-75
2022/03/06 08:14:52;;;;;;;10.45;6.88;;;;;;;0.45;83.55;95122.34;5077689;28;20426;-74
2022/03/06 08:17:18;;;;;;;10.50;7.47;;;;;;;0.38;83.08;95126.41;5068633;28;20025;-74
2022/03/06 08:19:44;;;;;;;10.45;6.63;;;;;;;0.39;83.31;95115.72;5068115;28;20030;-74
2022/03/06 08:22:09;;;;;;;8.60;6.50;;;;;;;0.54;82.95;95126.88;5049961;28;20031;-78
2022/03/06 08:24:35;;;;;;;9.70;6.80;;;;;;;0.46;82.86;95124.84;5076858;28;20031;-76
2022/03/06 08:27:00;;;;;;;9.55;7.00;;;;;;;0.52;83.02;95126.16;5087555;28;20020;-76
2022/03/06 08:29:25;;;;;;;9.00;5.95;;;;;;;0.44;82.54;95118.00;5084788;28;20028;-77
2022/03/06 08:31:51;;;;;;;10.15;7.47;;;;;;;0.51;82.51;95121.84;5082326;28;20039;-76
2022/03/06 08:34:16;;;;;;;10.07;7.03;;;;;;;0.42;82.34;95112.03;5058665;28;20032;-75
2022/03/06 08:36:42;;;;;;;11.07;7.72;;;;;;;0.40;82.58;95114.78;5084740;28;20020;-74
2022/03/06 08:39:08;;;;;;;11.88;7.38;;;;;;;0.44;83.04;95110.94;5062365;28;20035;-77
2022/03/06 08:41:34;;;;;;;11.20;7.40;;;;;;;0.59;82.17;95102.75;5082791;28;20024;-74
2022/03/06 08:43:59;;;;;;;9.85;8.02;;;;;;;0.59;82.00;95108.03;5081882;28;20040;-75
2022/03/06 08:46:24;;;;;;;10.50;6.93;;;;;;;0.56;81.32;95103.84;5084161;28;20058;-75
2022/03/06 08:48:50;;;;;;;11.70;7.90;;;;;;;0.59;82.09;95098.31;5065266;28;20028;-75
2022/03/06 08:51:15;;;;;;;10.73;7.40;;;;;;;0.60;82.04;95093.84;5083993;28;20024;-76
2022/03/06 08:53:41;;;;;;;12.30;8.07;;;;;;;0.63;80.92;95098.06;5080171;28;20383;-75
2022/03/06 08:56:06;;;;;;;12.23;7.60;;;;;;;0.67;81.09;95097.69;5084406;28;20721;-75
2022/03/06 08:58:32;;;;;;;10.98;7.45;;;;;;;0.76;81.12;95101.38;5065136;28;20105;-77
2022/03/06 09:00:57;;;;;;;10.15;7.78;;;;;;;0.83;81.50;95097.28;5068261;28;20572;-77
2022/03/06 09:03:23;;;;;;;12.75;8.20;;;;;;;0.84;80.98;95106.03;5084658;28;20031;-78
2022/03/06 09:05:48;;;;;;;15.43;8.77;;;;;;;0.92;81.35;95103.59;5081523;28;20468;-78
2022/03/06 09:08:14;;;;;;;11.15;8.05;;;;;;;1.08;80.93;95108.47;5064695;28;20410;-77
2022/03/06 09:10:40;;;;;;;11.00;7.90;;;;;;;1.00;81.04;95102.97;5086143;28;20028;-79
2022/03/06 09:13:06;;;;;;;11.20;7.15;;;;;;;0.90;81.44;95096.78;5083291;28;20597;-77
2022/03/06 09:15:31;;;;;;;12.52;8.35;;;;;;;0.90;82.20;95091.50;5061485;28;20510;-79
2022/03/06 09:17:57;;;;;;;11.55;7.80;;;;;;;0.89;81.76;95103.03;5085702;28;20035;-76
2022/03/06 09:20:23;;;;;;;12.85;7.90;;;;;;;0.93;81.63;95105.28;5079334;28;20048;-76
2022/03/06 09:22:48;;;;;;;12.77;7.70;;;;;;;0.89;82.04;95109.13;5073052;28;20032;-77
2022/03/06 09:25:14;;;;;;;11.77;7.78;;;;;;;0.89;81.94;95103.03;5081493;28;20101;-77
2022/03/06 09:27:39;;;;;;;10.50;7.47;;;;;;;1.05;81.64;95107.91;5066708;28;20036;-77
2022/03/06 09:30:05;;;;;;;11.45;7.18;;;;;;;1.08;81.62;95112.94;5085694;28;20096;-77
2022/03/06 09:32:31;;;;;;;12.45;7.50;;;;;;;1.00;81.25;95110.06;5081584;28;20036;-78
2022/03/06 09:34:56;;;;;;;13.15;7.47;;;;;;;1.15;81.50;95110.59;5081049;28;20069;-76
2022/03/06 09:37:21;;;;;;;11.65;7.07;;;;;;;1.08;80.55;95112.94;5064858;28;20483;-76
2022/03/06 09:39:47;;;;;;;8.73;6.03;;;;;;;1.01;81.43;95117.88;5065845;28;20455;-78
2022/03/06 09:42:13;;;;;;;9.90;7.20;;;;;;;1.02;81.82;95108.97;5079927;28;20036;-77
2022/03/06 09:44:39;;;;;;;11.85;7.63;;;;;;;0.99;81.66;95103.94;5062692;28;20078;-77
2022/03/06 09:47:05;;;;;;;11.95;7.20;;;;;;;1.18;81.60;95099.78;5066608;28;20031;-76
2022/03/06 09:49:30;;;;;;;8.90;6.25;;;;;;;1.16;80.80;95099.09;5081213;28;20039;-77
2022/03/06 09:51:56;;;;;;;8.07;5.28;;;;;;;1.14;79.94;95104.50;5082335;28;20036;-76
2022/03/06 09:54:22;;;;;;;6.00;4.22;;;;;;;1.01;80.39;95109.94;5079210;28;20024;-77
2022/03/06 09:56:47;;;;;;;6.32;4.38;;;;;;;1.09;80.15;95114.59;5084225;28;20027;-76
2022/03/06 09:59:13;;;;;;;7.72;4.97;;;;;;;1.03;80.36;95113.28;5077862;28;20028;-77
2022/03/06 10:01:38;;;;;;;7.63;5.65;;;;;;;1.06;79.49;95113.06;5056637;28;20036;-78
2022/03/06 10:04:25;;;;;;;7.32;5.30;;;;;;;1.01;79.97;95112.59;5079766;28;20028;-78
2022/03/06 10:06:58;;;;;;;8.27;5.68;;;;;;;0.97;79.84;95121.72;5083807;28;20040;-77
2022/03/06 10:09:23;;;;;;;8.20;6.07;;;;;;;0.93;80.24;95120.28;5068155;28;20112;-78
2022/03/06 10:11:51;;;;;;;8.18;5.55;;;;;;;0.80;80.89;95115.16;5080795;28;20530;-77
2022/03/06 10:14:39;;;;;;;9.23;5.93;;;;;;;0.84;80.62;95121.88;5082405;28;20032;-77
2022/03/06 10:17:17;;;;;;;6.55;5.13;;;;;;;0.71;80.32;95108.84;5064108;28;20506;-78
2022/03/06 10:19:54;;;;;;;8.25;5.07;;;;;;;0.73;80.45;95120.09;5077800;28;20035;-76
2022/03/06 10:22:21;;;;;;;7.53;4.68;;;;;;;0.81;80.25;95122.13;5075656;28;20032;-78
2022/03/06 10:24:51;;;;;;;7.72;5.38;;;;;;;0.74;81.01;95127.09;5079446;28;20318;-78
2022/03/06 10:27:16;;;;;;;9.73;5.82;;;;;;;0.70;80.77;95115.91;5065620;28;20020;-77
2022/03/06 10:29:42;;;;;;;7.53;5.88;;;;;;;0.66;80.34;95129.50;5065607;28;20071;-79
2022/03/06 10:32:07;;;;;;;8.73;5.40;;;;;;;0.73;80.30;95133.31;5085029;28;20112;-75
2022/03/06 10:34:35;;;;;;;6.50;4.78;;;;;;;0.65;80.01;95127.78;5078179;28;20470;-77
2022/03/06 10:37:01;;;;;;;8.77;5.53;;;;;;;0.72;79.76;95123.72;5082940;28;20047;-75
2022/03/06 10:39:27;;;;;;;9.20;5.80;;;;;;;0.68;80.18;95104.63;5047685;28;20097;-75
2022/03/06 10:41:54;;;;;;;8.95;5.05;;;;;;;0.83;79.19;95109.63;5082309;28;20499;-75
2022/03/06 10:44:21;;;;;;;9.48;5.70;;;;;;;0.62;78.60;95113.06;5080369;28;20672;-76
2022/03/06 10:47:00;;;;;;;7.25;5.25;;;;;;;0.68;79.28;95103.78;5081880;28;20032;-78
2022/03/06 10:49:26;;;;;;;7.68;5.63;;;;;;;0.67;78.59;95115.31;5083024;28;20035;-76
2022/03/06 10:51:51;;;;;;;9.10;5.85;;;;;;;0.74;78.72;95100.69;5082703;28;20023;-76
2022/03/06 10:54:17;;;;;;;6.07;5.07;;;;;;;0.72;78.28;95102.59;5079317;28;20024;-78
2022/03/06 10:56:43;;;;;;;7.78;5.43;;;;;;;0.80;76.66;95100.19;5065475;28;20024;-76
2022/03/06 10:59:09;;;;;;;6.30;4.63;;;;;;;0.74;76.77;95100.69;5082581;28;20028;-75
2022/03/06 11:01:36;;;;;;;8.40;5.82;;;;;;;0.78;76.25;95101.25;5080977;28;20032;-74
2022/03/06 11:04:02;;;;;;;9.80;6.85;;;;;;;0.73;76.55;95094.56;5061073;28;20048;-75
2022/03/06 11:06:28;;;;;;;8.55;6.10;;;;;;;0.80;76.32;95105.47;5082997;28;20440;-75
2022/03/06 11:08:54;;;;;;;8.48;5.85;;;;;;;0.92;76.17;95097.50;5065501;28;20032;-75
2022/03/06 11:11:20;;;;;;;7.97;5.93;;;;;;;0.95;76.74;95097.25;5064122;28;20062;-74
2022/03/06 11:13:46;;;;;;;8.38;6.07;;;;;;;0.84;77.21;95098.94;5060785;28;20579;-76
2022/03/06 11:16:11;;;;;;;7.57;5.55;;;;;;;0.79;77.19;95101.13;5081451;28;20115;-75
2022/03/06 11:18:36;;;;;;;8.60;5.38;;;;;;;0.57;78.96;95110.78;5083181;28;20024;-76
2022/03/06 11:21:02;;;;;;;8.50;5.70;;;;;;;0.55;80.23;95112.69;5063912;28;20031;-76
2022/03/06 11:23:30;;;;;;;8.43;5.78;;;;;;;0.46;79.75;95116.94;5083411;28;20103;-75
2022/03/06 11:26:17;;;;;;;8.95;5.78;;;;;;;0.43;80.41;95108.41;5079929;28;20034;-77
2022/03/06 11:28:53;;;;;;;8.70;5.50;;;;;;;0.41;80.94;95105.03;5084529;28;20140;-76